Погода Херекуарона неделю

Гуанахуато, Мексика

21 - 27 февраля
  • 21февраля
    Сегодня
    +10°
    +27°
    Ясно и безоблачно
    ВремяПогодаТемператураВлажностьДавлениеВетер, м/сВероятность осадков
    00:00Ясно и безоблачно+12°C73 %611 мм1.8 м/с2 %
    03:00Ясно и безоблачно+9°C83 %609 мм1.3 м/с2 %
    06:00Ясно и безоблачно+8°C70 %609 мм0.9 м/с2 %
    09:00Ясно и безоблачно+14°C40 %613 мм0.3 м/с2 %
    12:00Ясно и безоблачно+22°C18 %614 мм1.3 м/с2 %
    15:00Ясно и безоблачно+26°C11 %613 мм1.4 м/с2 %
    18:00Ясно и безоблачно+26°C27 %612 мм1.2 м/с2 %
    21:00Ясно и безоблачно+18°C37 %610 мм1.2 м/с2 %
  • 22февраля
    Четверг
    +11°
    +28°
    Ясно и безоблачно
    ВремяПогодаТемператураВлажностьДавлениеВетер, м/сВероятность осадков
    00:00Ясно и безоблачно+15°C48 %609 мм1.8 м/с2 %
    03:00Ясно и безоблачно+14°C44 %609 мм1.8 м/с2 %
    06:00Ясно и безоблачно+12°C51 %608 мм1.6 м/с2 %
    09:00Ясно и безоблачно+15°C38 %611 мм1.0 м/с2 %
    12:00Практически безоблачно+23°C21 %612 мм1.6 м/с2 %
    15:00Ясно и безоблачно+27°C13 %611 мм2.5 м/с2 %
    18:00Ясно и безоблачно+26°C17 %610 мм1.8 м/с2 %
    21:00Ясно и безоблачно+19°C32 %608 мм1.0 м/с2 %
  • 23февраля
    Пятница
    +9°
    +28°
    Ясно и безоблачно
    ВремяПогодаТемператураВлажностьДавлениеВетер, м/сВероятность осадков
    00:00Ясно и безоблачно+18°C38 %608 мм1.0 м/с2 %
    03:00Ясно и безоблачно+15°C42 %607 мм1.6 м/с2 %
    06:00Ясно и безоблачно+15°C37 %607 мм1.3 м/с2 %
    09:00Ясно и безоблачно+16°C31 %609 мм1.0 м/с2 %
    12:00Ясно и безоблачно+24°C15 %611 мм1.0 м/с2 %
    15:00Ясно и безоблачно+28°C10 %609 мм1.9 м/с2 %
    18:00Ясно и безоблачно+28°C14 %609 мм1.8 м/с2 %
    21:00Ясно и безоблачно+19°C43 %608 мм2.1 м/с2 %
  • 24февраля
    Суббота
    +11°
    +28°
    Небольшая облачность
    ВремяПогодаТемператураВлажностьДавлениеВетер, м/сВероятность осадков
    00:00Ясно и безоблачно+15°C77 %608 мм1.4 м/с2 %
    03:00Ясно и безоблачно+12°C85 %607 мм1.3 м/с2 %
    06:00Практически безоблачно+11°C85 %608 мм1.4 м/с2 %
    09:00Ясно и безоблачно+15°C58 %611 мм0.4 м/с2 %
    12:00Практически безоблачно+24°C26 %613 мм1.0 м/с2 %
    15:00Небольшая облачность+28°C16 %611 мм2.2 м/с2 %
    18:00Облачно с прояснениями+28°C20 %612 мм3.5 м/с2 %
    21:00Практически безоблачно+20°C53 %611 мм2.2 м/с2 %
Мы используем cookies
Соглашаюсь